Huvudsida
METAR-TAF:

METAR-TAF

Flygplatser :

Heidrun, Norge

latitud: 65-19-30N, longitud: 007-19-36E, höjd: 0 m

Aktuellt väderrapport

Denna rapport gjordes för 39 minuter sedan, klockan 18:20 UTC
Vind 30 kt från väst
Temperatur 11°C
Fuktighet 94%
Tryck 1009 hPa
Sikt: 2300 m
Brutna moln på en höjd av 400 ft
fuktdis

METAR: ENHE 201820Z 28030KT 2300 BR BKN004 11/10 Q1009 W///S5

Tid: 20:59 (18:59 UTC)

Väderprognos

Denna rapport gjordes för 1 timme och 59 minuter sedan, klockan 17:00 UTC
Prognos gäller från 20 kl. 18 UTC till 21 kl. 03 UTC
Vind 30 kt från väst
Sikt: 2000 m
Brutna moln på en höjd av 400 ft
lätt regn, duggregn, fuktdis
Temporärt
från 20 kl. 18 UTC till 21 kl. 03 UTC
Sikt: 6000 m
Brutna moln på en höjd av 1000 ft
regn, duggregn

TAF: ENHE 201700Z 2018/2103 26030KT 2000 -RADZ BR BKN004 TEMPO 2018/2103 6000 RADZ BKN010

Aktuella väderrapporter och prognoser från 4000 flygplatser (METAR- och TAF-rapporter).

De tillgängliga stationerna syns som gula och röda prickar på kartan.

För musen över prickarna för att se namnen på stationerna.

Klicka sedan för att få väderrapporter och prognoser.

För att ändra kartan: Klicka på de gröna knapparna med ett svart kors på för att zooma in; den gröna knappen med ett streck på för att zooma ut; eller på de gröna pilarna för angränsande kartor.


METAR-TAF: